EmailTwitter


Observations de surface / Québec / CYUL (71627)

Régions: Québec | Canada | États-Unis | Europe | France | UK | Ailleurs
Station
Affichage
Infos & localisation pour CYUL (71627) | Aide pour décoder les METARs

Observations prises le 2017-07-26 à 20H00 UTC à MONTREAL INTL A, QB (CYUL)

Etat du ciel: couvert.

Température: 23.0 Celsius

Point de rosée: 16.0 Celsius

Humidité relative: 65%

Indice Humidex: 28.

Vents: Sud-ouest à 19 km/h ou 10 noeuds.

Pression au niveau moyen de la mer: 101.93 kilopascals.

Calage altimétrique: 101.93 kilopascals ou 30.10 pouces de mercure.

Visibilité horizontale: 30.00 milles terrestres ou 48.00 kilomètres.

Hauteur du plafond: 2073 mètres ( 6800 pieds ).

Observation METAR:

CYUL 262000Z 22010KT 30SM FEW050 OVC068 23/16 A3010 RMK CF1AC7 SLP193 DENSITY

ALT 900FT=